createdAt,value
2023-02-26T00:00:33.570Z,-1.74
2023-02-26T00:03:00.242Z,-1.78
2023-02-26T00:05:27.379Z,-1.76
2023-02-26T00:07:54.119Z,-1.74
2023-02-26T00:10:21.341Z,-1.78
2023-02-26T00:12:48.361Z,-1.88
2023-02-26T00:15:17.784Z,-1.82
2023-02-26T00:18:05.828Z,-1.92
2023-02-26T00:20:33.814Z,-1.88
2023-02-26T00:23:00.850Z,-1.91
2023-02-26T00:25:27.583Z,-1.92
2023-02-26T00:27:54.734Z,-1.88
2023-02-26T00:30:22.005Z,-1.84
2023-02-26T00:32:49.202Z,-1.83
2023-02-26T00:35:16.691Z,-1.79
2023-02-26T00:38:14.767Z,-1.74
2023-02-26T00:40:44.042Z,-1.75
2023-02-26T00:43:22.775Z,-1.78
2023-02-26T00:46:03.665Z,-1.73
2023-02-26T00:48:49.230Z,-1.79
2023-02-26T00:51:28.101Z,-1.88
2023-02-26T00:54:17.214Z,-1.93
2023-02-26T00:56:43.783Z,-1.99
2023-02-26T00:59:10.593Z,-2.06
2023-02-26T01:01:37.244Z,-2.11
2023-02-26T01:04:04.708Z,-2.07
2023-02-26T01:06:34.658Z,-2.14
2023-02-26T01:09:07.913Z,-2.24
2023-02-26T01:11:36.005Z,-2.29
2023-02-26T01:14:04.977Z,-2.28
2023-02-26T01:16:38.397Z,-2.24
2023-02-26T01:19:20.535Z,-2.30
2023-02-26T01:21:55.232Z,-2.35
2023-02-26T01:24:24.203Z,-2.43
2023-02-26T01:26:51.080Z,-2.45
2023-02-26T01:29:18.065Z,-2.52
2023-02-26T01:32:00.507Z,-2.51
2023-02-26T01:34:48.756Z,-2.52
2023-02-26T01:37:41.328Z,-2.51
2023-02-26T01:40:45.016Z,-2.59
2023-02-26T01:43:20.588Z,-2.58
2023-02-26T01:46:05.301Z,-2.48
2023-02-26T01:48:54.336Z,-2.48
2023-02-26T01:51:46.856Z,-2.48
2023-02-26T01:54:15.598Z,-2.51
2023-02-26T01:56:45.200Z,-2.49
2023-02-26T01:59:15.524Z,-2.60
2023-02-26T02:01:42.421Z,-2.60
2023-02-26T02:04:14.504Z,-2.60
2023-02-26T02:06:42.808Z,-2.62
2023-02-26T02:09:10.493Z,-2.54
2023-02-26T02:11:53.101Z,-2.55
2023-02-26T02:14:31.673Z,-2.53
2023-02-26T02:17:33.849Z,-2.56
2023-02-26T02:20:06.491Z,-2.59
2023-02-26T02:22:46.039Z,-2.61
2023-02-26T02:25:28.006Z,-2.62
2023-02-26T02:28:05.669Z,-2.62
2023-02-26T02:30:53.160Z,-2.66
2023-02-26T02:33:23.870Z,-2.69
2023-02-26T02:35:56.276Z,-2.77
2023-02-26T02:38:49.724Z,-2.84
2023-02-26T02:41:22.777Z,-2.88
2023-02-26T02:43:52.595Z,-2.94
2023-02-26T02:46:28.624Z,-2.93
2023-02-26T02:49:05.709Z,-2.91
2023-02-26T02:51:44.471Z,-2.94
2023-02-26T02:54:30.279Z,-3.08
2023-02-26T02:57:04.594Z,-3.11
2023-02-26T02:59:45.189Z,-3.15
2023-02-26T03:02:34.029Z,-3.22
2023-02-26T03:05:00.827Z,-3.25
2023-02-26T03:07:34.025Z,-3.25
2023-02-26T03:10:00.826Z,-3.25
2023-02-26T03:12:32.439Z,-3.26
2023-02-26T03:15:00.716Z,-3.22
2023-02-26T03:17:36.589Z,-3.22
2023-02-26T03:20:08.134Z,-3.16
2023-02-26T03:22:53.291Z,-3.20
2023-02-26T03:25:38.096Z,-3.19
2023-02-26T03:28:25.726Z,-3.21
2023-02-26T03:31:07.785Z,-3.19
2023-02-26T03:33:37.623Z,-3.14
2023-02-26T03:36:20.604Z,-3.19
2023-02-26T03:39:20.487Z,-3.26
2023-02-26T03:41:56.037Z,-3.22
2023-02-26T03:44:30.768Z,-3.10
2023-02-26T03:47:04.599Z,-3.13
2023-02-26T03:49:58.357Z,-3.15
2023-02-26T03:52:28.787Z,-3.15
2023-02-26T03:55:20.574Z,-3.16
2023-02-26T03:57:59.821Z,-3.13
2023-02-26T04:00:32.955Z,-3.21
2023-02-26T04:03:32.580Z,-3.31
2023-02-26T04:05:59.814Z,-3.34
2023-02-26T04:08:27.470Z,-3.39
2023-02-26T04:11:06.693Z,-3.44
2023-02-26T04:13:33.505Z,-3.38
2023-02-26T04:16:01.237Z,-3.45
2023-02-26T04:18:28.826Z,-3.53
2023-02-26T04:20:56.160Z,-3.63
2023-02-26T04:23:23.059Z,-3.67
2023-02-26T04:25:49.880Z,-3.65
2023-02-26T04:28:16.819Z,-3.64
2023-02-26T04:30:43.628Z,-3.67
2023-02-26T04:33:13.850Z,-3.73
2023-02-26T04:35:40.849Z,-3.81
2023-02-26T04:38:08.868Z,-3.84
2023-02-26T04:40:35.822Z,-3.92
2023-02-26T04:43:03.218Z,-3.87
2023-02-26T04:45:34.419Z,-3.95
2023-02-26T04:48:01.279Z,-4.01
2023-02-26T04:50:28.084Z,-4.09
2023-02-26T04:52:54.942Z,-4.11
2023-02-26T04:55:21.975Z,-4.18
2023-02-26T04:57:48.674Z,-4.24
2023-02-26T05:00:16.159Z,-4.25
2023-02-26T05:02:43.048Z,-4.33
2023-02-26T05:05:10.056Z,-4.39
2023-02-26T05:07:37.251Z,-4.47
2023-02-26T05:10:06.209Z,-4.55
2023-02-26T05:12:33.489Z,-4.63
2023-02-26T05:15:00.667Z,-4.65
2023-02-26T05:17:27.474Z,-4.72
2023-02-26T05:19:54.318Z,-4.76
2023-02-26T05:22:21.065Z,-4.87
2023-02-26T05:24:48.195Z,-4.89
2023-02-26T05:27:15.361Z,-4.93
2023-02-26T05:29:45.666Z,-4.98
2023-02-26T05:32:13.991Z,-5.09
2023-02-26T05:34:40.695Z,-5.16
2023-02-26T05:37:07.590Z,-5.28
2023-02-26T05:39:34.249Z,-5.40
2023-02-26T05:42:00.924Z,-5.49
2023-02-26T05:44:27.628Z,-5.53
2023-02-26T05:46:54.337Z,-5.55
2023-02-26T05:49:21.190Z,-5.63
2023-02-26T05:51:48.313Z,-5.68
2023-02-26T05:54:14.933Z,-5.73
2023-02-26T05:56:41.822Z,-5.76
2023-02-26T05:59:08.363Z,-5.71
2023-02-26T06:01:37.096Z,-5.71
2023-02-26T06:04:06.877Z,-5.70
2023-02-26T06:06:33.622Z,-5.74
2023-02-26T06:09:02.372Z,-5.68
2023-02-26T06:11:34.096Z,-5.67
2023-02-26T06:14:01.371Z,-5.74
2023-02-26T06:16:28.617Z,-5.71
2023-02-26T06:18:55.810Z,-5.73
2023-02-26T06:21:22.418Z,-5.77
2023-02-26T06:23:48.982Z,-5.79
2023-02-26T06:26:15.890Z,-5.74
2023-02-26T06:28:42.442Z,-5.74
2023-02-26T06:31:09.211Z,-5.75
2023-02-26T06:33:35.790Z,-5.75
2023-02-26T06:36:03.046Z,-5.78
2023-02-26T06:38:29.711Z,-5.79
2023-02-26T06:40:56.369Z,-5.76
2023-02-26T06:43:23.060Z,-5.73
2023-02-26T06:45:49.735Z,-5.64
2023-02-26T06:48:16.731Z,-5.49
2023-02-26T06:50:43.332Z,-5.38
2023-02-26T06:53:10.460Z,-5.29
2023-02-26T06:55:37.086Z,-5.15
2023-02-26T06:58:04.005Z,-5.04
2023-02-26T07:00:30.634Z,-4.95
2023-02-26T07:02:58.235Z,-4.96
2023-02-26T07:05:25.430Z,-5.12
2023-02-26T07:07:52.008Z,-5.06
2023-02-26T07:10:21.546Z,-5.19
2023-02-26T07:12:48.972Z,-5.21
2023-02-26T07:15:15.935Z,-5.19
2023-02-26T07:17:42.875Z,-5.32
2023-02-26T07:20:10.425Z,-5.53
2023-02-26T07:22:38.143Z,-5.58
2023-02-26T07:25:05.860Z,-5.51
2023-02-26T07:27:33.433Z,-5.45
2023-02-26T07:30:00.773Z,-5.42
2023-02-26T07:32:30.461Z,-5.39
2023-02-26T07:34:57.224Z,-5.29
2023-02-26T07:37:24.425Z,-5.08
2023-02-26T07:39:51.824Z,-4.77
2023-02-26T07:42:18.588Z,-4.45
2023-02-26T07:44:45.282Z,-4.09
2023-02-26T07:47:12.009Z,-3.79
2023-02-26T07:49:39.594Z,-3.54
2023-02-26T07:52:08.116Z,-3.40
2023-02-26T07:54:36.156Z,-3.21
2023-02-26T07:57:03.759Z,-3.17
2023-02-26T07:59:30.471Z,-3.09
2023-02-26T08:01:57.294Z,-3.00
2023-02-26T08:04:24.466Z,-2.97
2023-02-26T08:06:51.197Z,-3.03
2023-02-26T08:09:17.824Z,-2.92
2023-02-26T08:11:44.559Z,-2.94
2023-02-26T08:14:11.884Z,-2.80
2023-02-26T08:16:39.160Z,-2.92
2023-02-26T08:19:06.039Z,-2.93
2023-02-26T08:21:32.765Z,-2.91
2023-02-26T08:23:59.634Z,-2.90
2023-02-26T08:26:27.258Z,-2.93
2023-02-26T08:28:54.945Z,-2.72
2023-02-26T08:31:21.722Z,-2.82
2023-02-26T08:33:48.671Z,-2.78
2023-02-26T08:36:15.213Z,-2.74
2023-02-26T08:38:42.133Z,-2.90
2023-02-26T08:41:09.318Z,-2.93
2023-02-26T08:43:37.604Z,-2.88
2023-02-26T08:46:04.665Z,-3.00
2023-02-26T08:48:31.457Z,-2.83
2023-02-26T09:15:32.384Z,-2.93
2023-02-26T09:18:00.025Z,-3.02
2023-02-26T09:20:27.704Z,-3.01
2023-02-26T09:22:54.424Z,-2.87
2023-02-26T09:25:21.007Z,-2.84
2023-02-26T09:27:48.050Z,-2.79
2023-02-26T09:30:15.323Z,-2.64
2023-02-26T09:32:42.241Z,-2.27
2023-02-26T09:35:09.902Z,-1.91
2023-02-26T09:37:36.955Z,-1.94
2023-02-26T09:40:03.982Z,-1.78
2023-02-26T09:42:44.725Z,-1.86
2023-02-26T09:45:26.049Z,-2.07
2023-02-26T09:47:54.218Z,-2.05
2023-02-26T09:50:31.932Z,-2.00
2023-02-26T09:53:20.833Z,-1.90
2023-02-26T09:55:50.753Z,-1.82
2023-02-26T09:58:37.284Z,-1.83
2023-02-26T10:01:13.288Z,-1.66
2023-02-26T10:03:55.037Z,-1.45
2023-02-26T10:06:49.619Z,-1.34
2023-02-26T10:09:22.057Z,-1.52
2023-02-26T10:12:03.095Z,-1.60
2023-02-26T10:14:38.759Z,-1.51
2023-02-26T10:17:19.587Z,-1.39
2023-02-26T10:19:51.601Z,-1.28
2023-02-26T10:22:29.308Z,-0.95
2023-02-26T10:25:03.672Z,-0.68
2023-02-26T10:28:07.124Z,-0.58
2023-02-26T10:30:41.602Z,-0.61
2023-02-26T10:33:43.748Z,-0.74
2023-02-26T10:36:25.540Z,-0.77
2023-02-26T10:39:01.001Z,-0.77
2023-02-26T10:41:31.376Z,-1.02
2023-02-26T10:44:09.235Z,-1.20
2023-02-26T10:46:56.660Z,-1.08
2023-02-26T10:49:29.255Z,-1.08
2023-02-26T10:51:57.686Z,-1.17
2023-02-26T10:54:39.558Z,-0.93
2023-02-26T10:57:17.034Z,-0.69
2023-02-26T10:59:43.694Z,-0.43
2023-02-26T11:02:33.714Z,-0.41
2023-02-26T11:05:07.510Z,0.15
2023-02-26T11:07:37.988Z,0.51
2023-02-26T11:10:05.089Z,0.35
2023-02-26T11:12:32.626Z,0.84
2023-02-26T11:15:02.320Z,1.08
2023-02-26T11:17:32.372Z,1.05
2023-02-26T11:20:05.419Z,1.04
2023-02-26T11:22:37.209Z,0.21
2023-02-26T11:25:05.176Z,-0.02
2023-02-26T11:27:36.983Z,-0.04
2023-02-26T11:30:18.433Z,-0.21
2023-02-26T11:32:50.123Z,-0.37
2023-02-26T11:35:19.104Z,-0.53
2023-02-26T11:38:00.110Z,-0.52
2023-02-26T11:40:41.683Z,-0.54
2023-02-26T11:43:14.947Z,-0.53
2023-02-26T11:45:45.828Z,-0.57
2023-02-26T11:48:28.383Z,-0.78
2023-02-26T11:51:00.006Z,-0.97
2023-02-26T11:53:34.897Z,-0.95
2023-02-26T11:56:13.598Z,-0.72
2023-02-26T11:58:45.300Z,-0.58
2023-02-26T12:01:13.712Z,-0.65
2023-02-26T12:03:46.174Z,-0.56
2023-02-26T12:06:21.257Z,-0.48
2023-02-26T12:08:48.287Z,-0.52
2023-02-26T12:11:36.921Z,-0.23
2023-02-26T12:14:12.858Z,0.14
2023-02-26T12:16:42.110Z,0.13
2023-02-26T12:19:17.965Z,0.15
2023-02-26T12:22:11.014Z,0.20
2023-02-26T12:24:47.792Z,0.42
2023-02-26T12:27:44.904Z,1.60
2023-02-26T12:30:45.614Z,2.04
2023-02-26T12:33:34.539Z,2.45
2023-02-26T12:36:16.932Z,1.68
2023-02-26T12:39:34.760Z,0.92
2023-02-26T12:42:01.696Z,0.16
2023-02-26T12:45:04.974Z,-0.31
2023-02-26T12:48:05.470Z,-0.46
2023-02-26T12:50:42.904Z,-0.70
2023-02-26T12:53:36.753Z,-0.70
2023-02-26T12:56:24.021Z,-0.23
2023-02-26T12:59:01.287Z,-0.12
2023-02-26T13:01:34.944Z,0.69
2023-02-26T13:04:24.016Z,2.70
2023-02-26T13:07:12.262Z,4.60
2023-02-26T13:10:24.571Z,5.08
2023-02-26T13:13:00.518Z,5.11
2023-02-26T13:15:55.561Z,3.87
2023-02-26T13:18:28.566Z,3.21
2023-02-26T13:21:07.795Z,2.88
2023-02-26T13:23:50.169Z,2.88
2023-02-26T13:26:18.901Z,3.08
2023-02-26T13:28:50.266Z,2.57
2023-02-26T13:31:21.636Z,2.31
2023-02-26T13:33:50.746Z,2.10
2023-02-26T13:36:19.694Z,1.74
2023-02-26T13:38:55.313Z,1.67
2023-02-26T13:41:28.241Z,1.36
2023-02-26T13:44:24.822Z,1.09
2023-02-26T13:47:05.339Z,1.24
2023-02-26T13:49:51.110Z,1.94
2023-02-26T13:52:30.454Z,1.97
2023-02-26T13:54:59.272Z,1.37
2023-02-26T13:57:36.696Z,0.72
2023-02-26T14:00:25.231Z,0.33
2023-02-26T14:02:57.483Z,-0.65
2023-02-26T14:05:34.668Z,-1.00
2023-02-26T14:08:01.137Z,-1.19
2023-02-26T14:10:36.244Z,-1.21
2023-02-26T14:13:08.823Z,-1.10
2023-02-26T14:16:01.252Z,-1.18
2023-02-26T14:18:27.990Z,-1.09
2023-02-26T14:21:27.574Z,0.13
2023-02-26T14:24:03.247Z,0.71
2023-02-26T14:26:35.628Z,0.94
2023-02-26T14:29:05.016Z,1.10
2023-02-26T14:31:50.631Z,0.74
2023-02-26T14:34:31.713Z,0.30
2023-02-26T14:37:02.065Z,0.01
2023-02-26T14:39:31.449Z,0.15
2023-02-26T14:42:06.424Z,1.11
2023-02-26T14:44:44.301Z,2.69
2023-02-26T14:47:12.810Z,3.03
2023-02-26T14:49:46.305Z,3.69
2023-02-26T14:52:37.491Z,3.53
2023-02-26T14:55:26.046Z,3.92
2023-02-26T14:58:26.448Z,3.69
2023-02-26T15:01:20.859Z,3.62
2023-02-26T15:03:51.154Z,3.14
2023-02-26T15:06:23.648Z,2.85
2023-02-26T15:09:04.723Z,3.49
2023-02-26T15:11:52.527Z,3.70
2023-02-26T15:14:44.814Z,4.35
2023-02-26T15:17:33.735Z,5.52
2023-02-26T15:20:03.220Z,5.45
2023-02-26T15:22:51.258Z,4.90
2023-02-26T15:25:27.238Z,3.48
2023-02-26T15:27:54.265Z,2.35
2023-02-26T15:30:22.695Z,1.28
2023-02-26T15:32:49.572Z,0.50
2023-02-26T15:35:19.844Z,0.14
2023-02-26T15:37:55.110Z,0.02
2023-02-26T15:40:22.068Z,-0.25
2023-02-26T15:42:55.246Z,-0.43
2023-02-26T15:45:25.944Z,-0.55
2023-02-26T15:48:02.753Z,-0.71
2023-02-26T15:50:33.737Z,-0.71
2023-02-26T15:53:03.064Z,-0.72
2023-02-26T15:55:35.506Z,-0.62
2023-02-26T15:58:03.899Z,-0.63
2023-02-26T16:00:35.703Z,-0.67
2023-02-26T16:03:02.193Z,-0.67
2023-02-26T16:05:29.573Z,-0.74
2023-02-26T16:07:56.852Z,-0.98
2023-02-26T16:10:33.199Z,-1.05
2023-02-26T16:13:02.009Z,-1.06
2023-02-26T16:15:34.753Z,-1.11
2023-02-26T16:18:05.363Z,-1.16
2023-02-26T16:20:44.604Z,-1.29
2023-02-26T16:23:18.310Z,-1.30
2023-02-26T16:25:50.477Z,-1.36
2023-02-26T16:28:22.013Z,-1.38
2023-02-26T16:30:54.311Z,-1.48
2023-02-26T16:33:24.320Z,-1.53
2023-02-26T16:36:03.463Z,-1.61
2023-02-26T16:38:56.611Z,-1.62
2023-02-26T16:41:26.002Z,-1.70
2023-02-26T16:43:57.847Z,-1.85
2023-02-26T16:46:34.134Z,-1.97
2023-02-26T16:49:06.356Z,-2.05
2023-02-26T16:51:37.543Z,-2.05
2023-02-26T16:54:17.479Z,-2.14
2023-02-26T16:56:47.823Z,-2.16
2023-02-26T16:59:23.316Z,-2.15
2023-02-26T17:01:53.291Z,-2.13
2023-02-26T17:04:23.615Z,-2.09
2023-02-26T17:06:52.066Z,-2.00
2023-02-26T17:09:52.822Z,-2.00
2023-02-26T17:12:28.538Z,-1.94
2023-02-26T17:14:57.370Z,-1.86
2023-02-26T17:17:25.428Z,-1.92
2023-02-26T17:19:53.064Z,-2.00
2023-02-26T17:22:28.880Z,-2.10
2023-02-26T17:24:55.631Z,-2.14
2023-02-26T17:27:29.017Z,-2.14
2023-02-26T17:29:57.868Z,-2.21
2023-02-26T17:32:27.699Z,-2.27
2023-02-26T17:34:54.853Z,-2.27
2023-02-26T17:37:23.008Z,-2.34
2023-02-26T17:39:49.717Z,-2.36
2023-02-26T17:42:23.017Z,-2.41
2023-02-26T17:44:50.515Z,-2.48
2023-02-26T17:47:21.135Z,-2.46
2023-02-26T17:49:48.427Z,-2.50
2023-02-26T17:52:16.105Z,-2.53
2023-02-26T17:54:43.558Z,-2.52
2023-02-26T17:57:17.025Z,-2.46
2023-02-26T17:59:43.955Z,-2.38
2023-02-26T18:02:22.027Z,-2.34
2023-02-26T18:04:49.314Z,-2.27
2023-02-26T18:07:17.584Z,-2.26
2023-02-26T18:09:45.573Z,-2.27
2023-02-26T18:12:14.591Z,-2.25
2023-02-26T18:14:45.006Z,-2.21
2023-02-26T18:17:14.653Z,-2.17
2023-02-26T18:19:42.678Z,-2.26
2023-02-26T18:22:17.306Z,-2.27
2023-02-26T18:24:43.843Z,-2.36
2023-02-26T18:27:17.658Z,-2.39
2023-02-26T18:29:44.611Z,-2.38
2023-02-26T18:32:16.227Z,-2.47
2023-02-26T18:34:42.973Z,-2.55
2023-02-26T18:37:16.123Z,-2.56
2023-02-26T18:39:43.030Z,-2.56
2023-02-26T18:42:23.082Z,-2.53
2023-02-26T18:44:50.635Z,-2.54
2023-02-26T18:47:19.042Z,-2.58
2023-02-26T18:49:46.224Z,-2.66
2023-02-26T18:52:13.442Z,-2.78
2023-02-26T18:54:40.822Z,-2.81
2023-02-26T18:57:08.497Z,-2.90
2023-02-26T18:59:36.029Z,-2.96
2023-02-26T19:02:04.644Z,-3.02
2023-02-26T19:04:31.475Z,-3.03
2023-02-26T19:06:58.350Z,-3.04
2023-02-26T19:09:27.193Z,-2.95
2023-02-26T19:11:53.735Z,-2.99
2023-02-26T19:14:20.633Z,-3.00
2023-02-26T19:16:47.309Z,-3.00
2023-02-26T19:19:14.185Z,-3.03
2023-02-26T19:21:41.137Z,-3.03
2023-02-26T19:24:10.477Z,-2.99
2023-02-26T19:26:37.926Z,-3.05
2023-02-26T19:29:06.742Z,-3.07
2023-02-26T19:31:36.568Z,-2.99
2023-02-26T19:34:04.131Z,-2.92
2023-02-26T19:36:34.830Z,-2.83
2023-02-26T19:39:02.897Z,-2.72
2023-02-26T19:41:29.644Z,-2.72
2023-02-26T19:43:57.013Z,-2.76
2023-02-26T19:46:23.663Z,-2.85
2023-02-26T19:48:50.819Z,-2.95
2023-02-26T19:51:18.611Z,-3.05
2023-02-26T19:53:45.706Z,-3.06
2023-02-26T19:56:13.056Z,-3.05
2023-02-26T19:58:40.029Z,-3.06
2023-02-26T20:01:07.285Z,-3.09
2023-02-26T20:03:34.036Z,-3.09
2023-02-26T20:06:01.484Z,-3.03
2023-02-26T20:08:29.765Z,-2.95
2023-02-26T20:10:58.734Z,-2.99
2023-02-26T20:13:30.204Z,-3.05
2023-02-26T20:16:00.988Z,-2.98
2023-02-26T20:18:30.827Z,-2.83
2023-02-26T20:21:02.354Z,-2.76
2023-02-26T20:23:29.427Z,-2.75
2023-02-26T20:25:59.312Z,-2.70
2023-02-26T20:28:25.867Z,-2.76
2023-02-26T20:30:52.609Z,-2.74
2023-02-26T20:33:21.095Z,-2.75
2023-02-26T20:35:48.092Z,-2.73
2023-02-26T20:38:16.810Z,-2.75
2023-02-26T20:40:44.461Z,-2.76
2023-02-26T20:43:14.817Z,-2.85
2023-02-26T20:45:41.849Z,-2.92
2023-02-26T20:48:09.123Z,-2.95
2023-02-26T20:50:36.295Z,-3.08
2023-02-26T20:53:04.898Z,-3.12
2023-02-26T20:55:32.022Z,-3.12
2023-02-26T20:57:58.790Z,-3.17
2023-02-26T21:00:25.524Z,-3.19
2023-02-26T21:02:52.494Z,-3.25
2023-02-26T21:05:20.124Z,-3.25
2023-02-26T21:07:47.197Z,-3.28
2023-02-26T21:10:16.319Z,-3.32
2023-02-26T21:12:43.149Z,-3.34
2023-02-26T21:15:11.857Z,-3.28
2023-02-26T21:17:39.930Z,-3.24
2023-02-26T21:20:08.742Z,-3.15
2023-02-26T21:22:36.433Z,-3.06
2023-02-26T21:25:06.476Z,-3.06
2023-02-26T21:27:34.254Z,-3.08
2023-02-26T21:30:00.838Z,-3.09
2023-02-26T21:32:27.894Z,-3.04
2023-02-26T21:34:55.778Z,-3.05
2023-02-26T21:37:22.434Z,-3.06
2023-02-26T21:39:49.104Z,-3.15
2023-02-26T21:42:15.834Z,-3.19
2023-02-26T21:44:42.825Z,-3.29
2023-02-26T21:47:11.084Z,-3.28
2023-02-26T21:49:38.156Z,-3.29
2023-02-26T21:52:06.721Z,-3.37
2023-02-26T21:54:33.669Z,-3.34
2023-02-26T21:57:00.461Z,-3.32
2023-02-26T21:59:27.198Z,-3.23
2023-02-26T22:01:54.155Z,-3.20
2023-02-26T22:04:21.792Z,-3.09
2023-02-26T22:06:48.855Z,-3.08
2023-02-26T22:09:15.563Z,-3.07
2023-02-26T22:11:42.261Z,-3.04
2023-02-26T22:14:08.896Z,-3.00
2023-02-26T22:16:35.505Z,-2.95
2023-02-26T22:19:02.469Z,-2.98
2023-02-26T22:21:29.636Z,-2.92
2023-02-26T22:23:56.284Z,-2.90
2023-02-26T22:26:23.326Z,-2.79
2023-02-26T22:28:49.864Z,-2.87
2023-02-26T22:31:16.884Z,-2.92
2023-02-26T22:33:43.529Z,-2.98
2023-02-26T22:36:10.277Z,-2.94
2023-02-26T22:38:36.933Z,-2.94
2023-02-26T22:41:03.706Z,-2.98
2023-02-26T22:43:30.622Z,-2.98
2023-02-26T22:45:57.208Z,-2.92
2023-02-26T22:48:24.186Z,-2.89
2023-02-26T22:50:50.889Z,-2.83
2023-02-26T22:53:17.552Z,-2.77
2023-02-26T22:55:44.414Z,-2.83
2023-02-26T22:58:10.964Z,-2.83
2023-02-26T23:00:37.624Z,-2.86
2023-02-26T23:03:04.500Z,-2.87
2023-02-26T23:05:31.287Z,-2.83
2023-02-26T23:07:57.922Z,-2.87
2023-02-26T23:10:24.588Z,-2.77
2023-02-26T23:12:51.378Z,-2.79
2023-02-26T23:15:18.178Z,-2.83
2023-02-26T23:17:44.825Z,-2.81
2023-02-26T23:20:14.053Z,-2.82
2023-02-26T23:22:43.622Z,-2.95
2023-02-26T23:25:12.096Z,-3.05
2023-02-26T23:27:39.710Z,-3.09
2023-02-26T23:30:08.247Z,-3.06
2023-02-26T23:32:35.104Z,-3.07
2023-02-26T23:35:01.743Z,-3.01
2023-02-26T23:37:28.480Z,-3.06
2023-02-26T23:39:55.412Z,-3.05
2023-02-26T23:42:22.033Z,-3.13
2023-02-26T23:44:49.881Z,-3.12
2023-02-26T23:47:16.587Z,-3.10
2023-02-26T23:49:43.375Z,-3.09
2023-02-26T23:52:10.032Z,-3.11
2023-02-26T23:54:39.673Z,-3.07
2023-02-26T23:57:06.816Z,-3.06
2023-02-26T23:59:33.985Z,-3.06
